createdAt,value
2018-12-02T00:01:30.086Z,7.53
2018-12-02T00:06:14.232Z,7.27
2018-12-02T00:10:58.395Z,7.80
2018-12-02T00:15:43.662Z,7.70
2018-12-02T00:20:27.936Z,7.87
2018-12-02T00:25:12.670Z,7.63
2018-12-02T00:29:56.636Z,8.57
2018-12-02T00:34:40.469Z,8.60
2018-12-02T00:39:24.512Z,9.07
2018-12-02T00:44:08.421Z,8.37
2018-12-02T00:48:52.701Z,9.17
2018-12-02T00:53:36.648Z,7.93
2018-12-02T00:58:20.547Z,7.87
2018-12-02T01:03:04.912Z,7.90
2018-12-02T01:07:48.886Z,8.63
2018-12-02T01:12:33.958Z,9.07
2018-12-02T01:17:18.902Z,8.53
2018-12-02T01:22:02.926Z,7.43
2018-12-02T01:26:47.042Z,7.27
2018-12-02T01:31:31.000Z,8.20
2018-12-02T01:36:15.218Z,8.27
2018-12-02T01:40:59.171Z,7.60
2018-12-02T01:45:43.205Z,7.50
2018-12-02T01:50:27.534Z,7.60
2018-12-02T01:55:12.725Z,7.10
2018-12-02T01:59:56.754Z,7.67
2018-12-02T02:04:40.714Z,7.00
2018-12-02T02:09:24.677Z,7.87
2018-12-02T02:14:09.180Z,7.67
2018-12-02T02:18:52.952Z,7.07
2018-12-02T02:23:36.766Z,7.27
2018-12-02T02:28:21.562Z,7.13
2018-12-02T02:33:05.856Z,6.93
2018-12-02T02:37:53.618Z,7.43
2018-12-02T02:42:37.770Z,7.63
2018-12-02T02:47:21.689Z,7.53
2018-12-02T02:52:06.228Z,6.50
2018-12-02T02:56:50.229Z,6.87
2018-12-02T03:01:34.086Z,7.03
2018-12-02T03:06:18.054Z,6.13
2018-12-02T03:11:01.995Z,6.60
2018-12-02T03:15:45.947Z,6.63
2018-12-02T03:20:29.874Z,6.17
2018-12-02T03:25:14.699Z,6.00
2018-12-02T03:29:58.511Z,5.87
2018-12-02T03:34:42.526Z,5.73
2018-12-02T03:39:26.399Z,5.57
2018-12-02T03:44:10.343Z,6.30
2018-12-02T03:48:54.376Z,7.23
2018-12-02T03:53:38.599Z,7.70
2018-12-02T03:58:22.691Z,7.07
2018-12-02T04:03:06.628Z,7.60
2018-12-02T04:07:51.339Z,8.77
2018-12-02T04:12:35.255Z,9.17
2018-12-02T04:17:19.111Z,9.60
2018-12-02T04:22:03.078Z,8.43
2018-12-02T04:26:46.872Z,8.73
2018-12-02T04:31:30.759Z,8.03
2018-12-02T04:36:14.760Z,6.60
2018-12-02T04:40:58.710Z,7.87
2018-12-02T04:45:42.896Z,7.53
2018-12-02T04:50:26.786Z,8.77
2018-12-02T04:55:11.013Z,10.13
2018-12-02T04:59:55.106Z,9.13
2018-12-02T05:04:39.149Z,8.93
2018-12-02T05:09:23.016Z,10.13
2018-12-02T05:14:07.029Z,9.57
2018-12-02T05:18:50.826Z,9.27
2018-12-02T05:23:34.687Z,9.10
2018-12-02T05:28:18.494Z,8.93
2018-12-02T05:33:02.468Z,9.60
2018-12-02T05:37:46.390Z,6.67
2018-12-02T05:42:32.391Z,5.87
2018-12-02T05:47:16.355Z,5.30
2018-12-02T05:52:00.434Z,5.93
2018-12-02T05:56:44.597Z,6.27
2018-12-02T06:01:28.741Z,5.67
2018-12-02T06:06:12.736Z,5.60
2018-12-02T06:10:56.830Z,5.83
2018-12-02T06:15:40.674Z,4.60
2018-12-02T06:20:25.569Z,4.73
2018-12-02T06:25:10.688Z,4.57
2018-12-02T06:29:54.624Z,4.10
2018-12-02T06:34:38.716Z,3.60
2018-12-02T06:39:22.847Z,3.87
2018-12-02T06:44:06.966Z,4.33
2018-12-02T06:48:50.945Z,4.20
2018-12-02T06:53:34.868Z,3.80
2018-12-02T07:00:37.392Z,3.67
2018-12-02T07:05:27.507Z,4.03
2018-12-02T07:10:11.826Z,3.80
2018-12-02T07:14:55.863Z,3.47
2018-12-02T07:19:53.630Z,4.00
2018-12-02T07:24:40.920Z,4.30
2018-12-02T07:29:27.989Z,4.27
2018-12-02T07:34:16.404Z,3.17
2018-12-02T07:39:15.083Z,4.10
2018-12-02T07:44:01.231Z,3.70
2018-12-02T07:48:47.866Z,3.67
2018-12-02T07:53:43.819Z,3.87
2018-12-02T08:03:22.019Z,3.70
2018-12-02T08:08:06.466Z,3.50
2018-12-02T08:12:56.594Z,4.00
2018-12-02T08:17:40.951Z,4.90
2018-12-02T08:22:27.428Z,4.50
2018-12-02T08:27:17.875Z,4.37
2018-12-02T08:32:17.563Z,4.70
2018-12-02T08:37:10.475Z,4.63
2018-12-02T08:42:02.434Z,4.20
2018-12-02T08:46:47.107Z,4.90
2018-12-02T08:51:31.046Z,4.77
2018-12-02T08:56:25.324Z,5.70
2018-12-02T09:01:12.721Z,5.70
2018-12-02T09:05:56.795Z,5.23
2018-12-02T09:10:46.416Z,5.43
2018-12-02T09:15:34.801Z,5.87
2018-12-02T09:20:21.570Z,5.43
2018-12-02T09:25:05.981Z,5.83
2018-12-02T09:29:50.600Z,5.47
2018-12-02T09:34:34.862Z,5.20
2018-12-02T09:39:18.903Z,5.37
2018-12-02T09:44:04.920Z,4.83
2018-12-02T09:48:50.192Z,5.20
2018-12-02T09:53:37.506Z,4.27
2018-12-02T09:58:25.538Z,4.33
2018-12-02T10:03:09.456Z,3.90
2018-12-02T10:07:53.796Z,4.13
2018-12-02T10:12:49.445Z,4.57
2018-12-02T10:17:33.474Z,4.90
2018-12-02T10:22:17.626Z,4.70
2018-12-02T10:27:02.182Z,4.30
2018-12-02T10:31:46.265Z,3.67
2018-12-02T10:36:31.779Z,3.97
2018-12-02T10:41:15.878Z,3.70
2018-12-02T10:45:59.950Z,3.90
2018-12-02T10:50:44.042Z,3.67
2018-12-02T10:55:38.772Z,3.67
2018-12-02T11:00:28.418Z,3.03
2018-12-02T11:05:12.345Z,3.40
2018-12-02T11:09:56.494Z,3.00
2018-12-02T11:14:40.376Z,3.33
2018-12-02T11:19:24.535Z,3.50
2018-12-02T11:24:08.548Z,3.43
2018-12-02T11:28:52.382Z,4.17
2018-12-02T11:33:36.508Z,3.17
2018-12-02T11:38:20.895Z,3.40
2018-12-02T11:43:44.553Z,3.10
2018-12-02T11:48:29.666Z,2.80
2018-12-02T11:53:15.237Z,2.60
2018-12-02T11:57:59.214Z,5.40
2018-12-02T12:02:43.570Z,8.60
2018-12-02T12:07:28.123Z,9.00
2018-12-02T12:12:12.244Z,8.77
2018-12-02T12:16:55.988Z,8.57
2018-12-02T12:21:39.852Z,8.50
2018-12-02T12:26:23.852Z,8.40
2018-12-02T12:31:07.792Z,8.33
2018-12-02T12:35:52.340Z,8.07
2018-12-02T12:40:37.489Z,8.17
2018-12-02T12:45:21.582Z,8.77
2018-12-02T12:50:08.858Z,7.30
2018-12-02T12:54:52.783Z,8.53
2018-12-02T12:59:36.761Z,8.47
2018-12-02T13:04:20.678Z,8.03
2018-12-02T13:09:06.773Z,9.90
2018-12-02T13:13:50.858Z,2.80
2018-12-02T13:18:35.084Z,2.30
2018-12-02T13:23:18.931Z,2.07
2018-12-02T13:28:02.842Z,2.83
2018-12-02T13:32:50.134Z,2.13
2018-12-02T13:37:34.327Z,2.50
2018-12-02T13:42:18.373Z,3.43
2018-12-02T13:47:03.260Z,2.77
2018-12-02T13:51:47.314Z,2.40
2018-12-02T13:56:32.497Z,1.73
2018-12-02T14:01:16.563Z,3.57
2018-12-02T14:06:02.908Z,1.80
2018-12-02T14:10:47.142Z,2.30
2018-12-02T14:16:38.402Z,1.60
2018-12-02T14:21:22.398Z,3.37
2018-12-02T14:26:12.495Z,1.60
2018-12-02T14:30:56.604Z,1.80
2018-12-02T14:35:40.920Z,1.90
2018-12-02T14:40:24.882Z,1.80
2018-12-02T14:45:17.339Z,1.50
2018-12-02T14:50:05.701Z,1.83
2018-12-02T14:54:50.596Z,1.73
2018-12-02T14:59:35.069Z,2.20
2018-12-02T15:04:20.236Z,2.03
2018-12-02T15:09:06.383Z,2.10
2018-12-02T15:13:50.821Z,2.43
2018-12-02T15:18:34.759Z,1.80
2018-12-02T15:23:18.836Z,2.10
2018-12-02T15:28:03.002Z,1.70
2018-12-02T15:32:51.449Z,1.73
2018-12-02T15:37:35.968Z,2.00
2018-12-02T15:42:28.872Z,1.80
2018-12-02T15:47:13.178Z,1.60
2018-12-02T15:51:57.305Z,2.00
2018-12-02T15:56:42.652Z,1.90
2018-12-02T16:01:34.920Z,1.70
2018-12-02T16:06:21.575Z,1.70
2018-12-02T16:24:03.600Z,1.43
2018-12-02T16:28:50.767Z,1.60
2018-12-02T16:33:34.925Z,1.67
2018-12-02T16:38:21.786Z,2.13
2018-12-02T16:43:06.112Z,1.65
2018-12-02T17:03:58.610Z,1.30
2018-12-02T17:08:42.965Z,1.27
2018-12-02T17:13:28.032Z,1.33
2018-12-02T17:18:19.690Z,1.27
2018-12-02T17:23:07.494Z,1.10
2018-12-02T17:27:52.947Z,1.47
2018-12-02T17:38:10.387Z,1.17
2018-12-02T17:43:13.128Z,12.00
2018-12-02T17:48:04.904Z,2.97
2018-12-02T17:52:55.319Z,1.80
2018-12-02T17:57:41.749Z,1.70
2018-12-02T18:02:25.793Z,2.57
2018-12-02T18:07:09.727Z,1.70
2018-12-02T18:11:53.560Z,2.00
2018-12-02T18:16:37.941Z,1.80
2018-12-02T18:21:21.864Z,1.37
2018-12-02T18:26:10.125Z,1.23
2018-12-02T18:36:03.013Z,1.43
2018-12-02T18:41:08.780Z,1.20
2018-12-02T18:46:00.639Z,1.00
2018-12-02T18:50:44.712Z,0.80
2018-12-02T18:55:28.862Z,0.80
2018-12-02T19:00:22.038Z,1.00
2018-12-02T19:05:06.550Z,1.60
2018-12-02T19:09:50.860Z,1.27
2018-12-02T19:14:34.927Z,1.40
2018-12-02T19:19:19.357Z,1.30
2018-12-02T19:24:03.536Z,1.47
2018-12-02T19:28:47.634Z,1.30
2018-12-02T19:33:32.294Z,1.90
2018-12-02T19:38:22.240Z,1.30
2018-12-02T19:43:36.506Z,1.17
2018-12-02T19:48:20.794Z,1.00
2018-12-02T19:53:07.339Z,0.90
2018-12-02T19:57:52.683Z,1.80
2018-12-02T20:02:38.785Z,1.50
2018-12-02T20:07:23.325Z,1.50
2018-12-02T20:12:16.150Z,1.60
2018-12-02T20:17:01.158Z,1.37
2018-12-02T20:21:47.455Z,1.37
2018-12-02T20:42:00.146Z,0.97
2018-12-02T20:46:47.971Z,1.13
2018-12-02T20:51:34.631Z,0.90
2018-12-02T20:56:21.008Z,1.10
2018-12-02T21:01:09.809Z,1.00
2018-12-02T21:06:10.732Z,1.17
2018-12-02T21:32:08.279Z,1.13
2018-12-02T21:36:52.622Z,1.30
2018-12-02T21:41:37.566Z,1.07
2018-12-02T21:46:21.687Z,1.33
2018-12-02T21:51:07.778Z,1.17
2018-12-02T21:55:53.096Z,1.10
2018-12-02T22:00:43.368Z,1.27
2018-12-02T22:05:28.770Z,1.20
2018-12-02T22:10:21.745Z,1.30
2018-12-02T22:15:11.322Z,1.37
2018-12-02T22:19:55.537Z,1.03
2018-12-02T22:24:39.961Z,1.03
2018-12-02T22:29:24.202Z,1.60
2018-12-02T22:34:08.209Z,1.20
2018-12-02T22:38:52.316Z,1.07
2018-12-02T22:43:36.587Z,1.37
2018-12-02T22:48:20.663Z,1.00
2018-12-02T22:53:04.850Z,1.30
2018-12-02T22:57:49.118Z,1.27
2018-12-02T23:02:38.231Z,1.07
2018-12-02T23:07:22.485Z,1.07
2018-12-02T23:12:06.866Z,1.50
2018-12-02T23:17:18.063Z,1.40
2018-12-02T23:22:02.129Z,1.50
2018-12-02T23:26:46.313Z,1.50
2018-12-02T23:31:30.639Z,1.43
2018-12-02T23:36:14.693Z,1.20
2018-12-02T23:40:59.124Z,1.20
2018-12-02T23:45:43.377Z,1.30
2018-12-02T23:50:27.773Z,1.37
2018-12-02T23:55:13.557Z,1.10
